createdAt,value
2023-03-24T00:01:30.669Z,47.30
2023-03-24T00:04:01.062Z,47.30
2023-03-24T00:06:29.772Z,47.40
2023-03-24T00:08:58.309Z,47.40
2023-03-24T00:11:28.134Z,47.60
2023-03-24T00:13:58.707Z,47.30
2023-03-24T00:16:27.707Z,47.40
2023-03-24T00:18:56.882Z,47.50
2023-03-24T00:21:26.632Z,48.70
2023-03-24T00:23:58.551Z,48.10
2023-03-24T00:26:30.104Z,48.50
2023-03-24T00:28:58.757Z,48.50
2023-03-24T00:31:27.404Z,48.60
2023-03-24T00:33:56.191Z,48.80
2023-03-24T00:36:26.652Z,48.80
2023-03-24T00:38:55.983Z,48.70
2023-03-24T00:41:24.940Z,48.70
2023-03-24T00:43:57.132Z,48.50
2023-03-24T00:46:29.613Z,48.30
2023-03-24T00:49:06.213Z,48.40
2023-03-24T00:51:37.485Z,48.30
2023-03-24T00:54:07.800Z,48.30
2023-03-24T00:56:40.781Z,48.30
2023-03-24T00:59:13.878Z,48.40
2023-03-24T01:01:43.672Z,48.40
2023-03-24T01:04:12.434Z,48.40
2023-03-24T01:06:41.438Z,48.40
2023-03-24T01:09:10.778Z,48.40
2023-03-24T01:11:42.396Z,48.40
2023-03-24T01:14:13.840Z,48.40
2023-03-24T01:16:43.459Z,48.40
2023-03-24T01:19:12.346Z,48.50
2023-03-24T01:21:42.603Z,48.70
2023-03-24T01:24:11.204Z,48.90
2023-03-24T01:26:39.855Z,49.10
2023-03-24T01:29:08.320Z,49.20
2023-03-24T01:31:38.132Z,49.00
2023-03-24T01:34:07.246Z,49.40
2023-03-24T01:36:36.171Z,49.10
2023-03-24T01:39:05.418Z,49.00
2023-03-24T01:41:36.266Z,49.00
2023-03-24T01:44:27.712Z,49.10
2023-03-24T01:46:58.321Z,49.10
2023-03-24T01:49:32.985Z,49.30
2023-03-24T01:52:04.099Z,49.30
2023-03-24T01:54:37.787Z,49.60
2023-03-24T01:57:13.502Z,49.40
2023-03-24T01:59:48.118Z,49.30
2023-03-24T02:02:25.350Z,49.30
2023-03-24T02:05:01.969Z,49.50
2023-03-24T02:07:42.419Z,49.40
2023-03-24T02:10:14.651Z,49.40
2023-03-24T02:12:44.177Z,49.40
2023-03-24T02:15:14.979Z,49.40
2023-03-24T02:17:57.466Z,49.30
2023-03-24T02:20:47.312Z,49.20
2023-03-24T02:24:07.575Z,49.20
2023-03-24T02:26:49.576Z,49.30
2023-03-24T02:29:50.818Z,49.40
2023-03-24T02:32:59.563Z,49.60
2023-03-24T02:36:09.576Z,49.70
2023-03-24T02:39:23.473Z,49.80
2023-03-24T02:41:59.061Z,50.00
2023-03-24T02:44:36.331Z,50.00
2023-03-24T02:47:11.047Z,50.00
2023-03-24T02:49:47.705Z,50.20
2023-03-24T02:52:21.966Z,50.10
2023-03-24T02:55:01.841Z,50.10
2023-03-24T02:57:36.459Z,50.20
2023-03-24T03:00:30.927Z,50.20
2023-03-24T03:03:11.100Z,50.20
2023-03-24T03:05:47.198Z,50.30
2023-03-24T03:08:21.694Z,50.20
2023-03-24T03:10:53.084Z,50.20
2023-03-24T03:13:28.755Z,50.20
2023-03-24T03:16:01.162Z,50.30
2023-03-24T03:18:34.997Z,50.30
2023-03-24T03:21:08.706Z,50.90
2023-03-24T03:23:40.534Z,50.50
2023-03-24T03:26:13.145Z,50.60
2023-03-24T03:28:50.409Z,50.60
2023-03-24T03:31:30.016Z,50.60
2023-03-24T03:34:08.373Z,50.70
2023-03-24T03:36:45.994Z,50.80
2023-03-24T03:39:22.232Z,50.90
2023-03-24T03:41:50.926Z,50.90
2023-03-24T03:44:21.262Z,51.00
2023-03-24T03:46:50.787Z,51.20
2023-03-24T03:49:26.920Z,51.30
2023-03-24T03:51:57.478Z,51.10
2023-03-24T03:54:30.087Z,51.20
2023-03-24T03:56:59.673Z,51.10
2023-03-24T03:59:36.854Z,51.20
2023-03-24T04:02:35.726Z,51.30
2023-03-24T04:05:29.331Z,51.30
2023-03-24T04:08:33.145Z,51.40
2023-03-24T04:11:47.867Z,51.40
2023-03-24T04:14:59.808Z,51.50
2023-03-24T04:18:12.909Z,51.50
2023-03-24T04:21:10.114Z,51.30
2023-03-24T04:23:50.042Z,51.40
2023-03-24T04:26:26.729Z,51.30
2023-03-24T04:29:10.009Z,51.30
2023-03-24T04:31:49.593Z,51.30
2023-03-24T04:34:22.330Z,51.30
2023-03-24T04:36:55.572Z,51.30
2023-03-24T04:39:47.881Z,51.40
2023-03-24T04:42:22.281Z,51.40
2023-03-24T04:44:52.411Z,51.40
2023-03-24T04:47:47.571Z,51.50
2023-03-24T04:50:56.340Z,51.50
2023-03-24T04:53:26.692Z,51.60
2023-03-24T04:56:09.400Z,51.70
2023-03-24T04:59:04.479Z,51.70
2023-03-24T05:01:37.872Z,51.70
2023-03-24T05:04:29.805Z,51.90
2023-03-24T05:07:03.880Z,51.90
2023-03-24T05:09:32.973Z,51.90
2023-03-24T05:12:02.670Z,52.00
2023-03-24T05:14:37.239Z,52.00
2023-03-24T05:17:07.652Z,52.00
2023-03-24T05:19:37.776Z,52.00
2023-03-24T05:22:06.593Z,52.00
2023-03-24T05:24:35.377Z,52.00
2023-03-24T05:27:04.017Z,52.00
2023-03-24T05:29:32.805Z,52.00
2023-03-24T05:32:01.592Z,51.90
2023-03-24T05:34:31.219Z,51.90
2023-03-24T05:37:14.586Z,51.90
2023-03-24T05:39:43.144Z,51.80
2023-03-24T05:42:30.778Z,51.80
2023-03-24T05:45:01.927Z,51.70
2023-03-24T05:47:32.098Z,51.70
2023-03-24T05:50:00.657Z,51.60
2023-03-24T05:52:31.744Z,51.60
2023-03-24T05:55:16.086Z,51.60
2023-03-24T05:57:44.845Z,51.50
2023-03-24T06:00:42.225Z,51.40
2023-03-24T06:03:18.669Z,51.40
2023-03-24T06:06:01.517Z,51.40
2023-03-24T06:08:33.990Z,51.50
2023-03-24T06:11:04.632Z,51.40
2023-03-24T06:13:38.459Z,51.40
2023-03-24T06:16:07.848Z,51.40
2023-03-24T06:18:54.932Z,51.20
2023-03-24T06:22:03.245Z,51.10
2023-03-24T06:24:39.466Z,51.10
2023-03-24T06:27:11.697Z,51.10
2023-03-24T06:29:42.433Z,51.10
2023-03-24T06:32:12.253Z,51.10
2023-03-24T06:34:43.529Z,51.20
2023-03-24T06:37:28.247Z,51.30
2023-03-24T06:39:58.784Z,51.20
2023-03-24T06:42:30.604Z,51.20
2023-03-24T06:44:59.673Z,51.30
2023-03-24T06:47:28.241Z,51.40
2023-03-24T06:49:57.236Z,51.40
2023-03-24T06:52:28.071Z,51.40
2023-03-24T06:54:59.010Z,51.30
2023-03-24T06:57:29.990Z,51.10
2023-03-24T07:00:17.240Z,51.20
2023-03-24T07:02:58.276Z,51.10
2023-03-24T07:05:27.836Z,50.90
2023-03-24T07:10:45.720Z,50.70
2023-03-24T07:13:14.509Z,50.50
2023-03-24T07:15:43.711Z,50.50
2023-03-24T07:18:14.107Z,50.10
2023-03-24T07:20:45.272Z,49.70
2023-03-24T07:23:25.568Z,49.50
2023-03-24T07:26:18.023Z,49.60
2023-03-24T07:28:49.332Z,47.80
2023-03-24T07:31:40.076Z,47.60
2023-03-24T07:34:11.485Z,46.90
2023-03-24T07:36:41.785Z,45.50
2023-03-24T07:39:17.907Z,44.00
2023-03-24T07:41:48.346Z,43.30
2023-03-24T07:44:27.468Z,42.10
2023-03-24T07:46:56.111Z,41.00
2023-03-24T07:49:24.968Z,40.00
2023-03-24T07:52:06.792Z,39.10
2023-03-24T07:54:45.621Z,38.50
2023-03-24T07:57:37.409Z,38.10
2023-03-24T08:00:16.167Z,37.80
2023-03-24T08:02:54.483Z,38.20
2023-03-24T08:05:43.549Z,38.20
2023-03-24T08:08:27.391Z,38.80
2023-03-24T08:10:56.103Z,39.00
2023-03-24T08:13:26.291Z,38.90
2023-03-24T08:15:54.807Z,38.50
2023-03-24T08:18:24.424Z,38.40
2023-03-24T08:20:57.461Z,38.10
2023-03-24T08:23:26.071Z,37.80
2023-03-24T08:25:54.536Z,37.30
2023-03-24T08:28:22.997Z,37.00
2023-03-24T08:30:55.705Z,35.30
2023-03-24T08:33:24.373Z,34.00
2023-03-24T08:35:57.724Z,33.90
2023-03-24T08:38:30.788Z,32.90
2023-03-24T08:41:02.314Z,32.60
2023-03-24T08:43:31.843Z,32.50
2023-03-24T08:46:02.864Z,32.40
2023-03-24T08:48:33.066Z,32.20
2023-03-24T08:51:01.428Z,32.00
2023-03-24T08:53:29.877Z,32.10
2023-03-24T08:55:58.284Z,32.00
2023-03-24T08:58:27.130Z,31.90
2023-03-24T09:00:55.606Z,32.10
2023-03-24T09:03:26.260Z,31.80
2023-03-24T09:05:58.618Z,32.00
2023-03-24T09:08:27.564Z,32.10
2023-03-24T09:10:56.121Z,32.10
2023-03-24T09:13:25.039Z,31.90
2023-03-24T09:15:55.188Z,31.30
2023-03-24T09:18:25.914Z,30.50
2023-03-24T09:20:54.767Z,30.90
2023-03-24T09:23:23.845Z,30.80
2023-03-24T09:25:52.860Z,30.70
2023-03-24T09:28:21.585Z,30.80
2023-03-24T09:30:50.208Z,30.80
2023-03-24T09:33:19.049Z,30.60
2023-03-24T09:35:56.487Z,31.30
2023-03-24T09:38:26.842Z,30.60
2023-03-24T09:40:58.059Z,30.70
2023-03-24T09:43:32.287Z,31.00
2023-03-24T09:46:03.261Z,31.20
2023-03-24T09:48:37.580Z,31.30
2023-03-24T09:51:10.489Z,31.60
2023-03-24T09:53:46.903Z,32.40
2023-03-24T09:56:17.712Z,32.50
2023-03-24T09:58:50.955Z,32.60
2023-03-24T10:01:19.613Z,32.10
2023-03-24T10:03:48.473Z,32.10
2023-03-24T10:06:26.167Z,32.20
2023-03-24T10:09:08.898Z,31.30
2023-03-24T10:11:46.280Z,31.00
2023-03-24T10:14:26.187Z,31.30
2023-03-24T10:17:01.803Z,30.70
2023-03-24T10:19:41.558Z,30.10
2023-03-24T10:22:20.859Z,30.40
2023-03-24T10:24:58.020Z,30.10
2023-03-24T10:27:33.002Z,29.80
2023-03-24T10:30:08.238Z,29.60
2023-03-24T10:32:38.131Z,29.50
2023-03-24T10:35:10.255Z,29.50
2023-03-24T10:37:40.426Z,29.50
2023-03-24T10:40:18.105Z,29.20
2023-03-24T10:42:49.935Z,29.00
2023-03-24T10:45:38.176Z,28.50
2023-03-24T10:48:07.613Z,28.30
2023-03-24T10:50:38.257Z,28.50
2023-03-24T10:53:19.236Z,28.60
2023-03-24T10:55:49.079Z,29.00
2023-03-24T10:58:30.124Z,28.70
2023-03-24T11:01:00.719Z,27.90
2023-03-24T11:03:32.033Z,27.90
2023-03-24T11:06:03.091Z,27.90
2023-03-24T11:08:37.344Z,27.70
2023-03-24T11:11:16.733Z,27.90
2023-03-24T11:13:57.425Z,27.60
2023-03-24T11:16:31.761Z,27.90
2023-03-24T11:19:02.383Z,28.00
2023-03-24T11:21:32.773Z,28.10
2023-03-24T11:24:04.882Z,28.00
2023-03-24T11:26:36.261Z,28.40
2023-03-24T11:29:10.049Z,28.50
2023-03-24T11:31:40.384Z,28.70
2023-03-24T11:34:13.808Z,28.80
2023-03-24T11:36:50.661Z,29.20
2023-03-24T11:39:23.779Z,29.50
2023-03-24T11:42:08.392Z,29.60
2023-03-24T11:44:47.030Z,29.90
2023-03-24T11:47:25.187Z,30.00
2023-03-24T11:50:02.371Z,30.00
2023-03-24T11:52:34.864Z,30.40
2023-03-24T11:55:14.247Z,30.00
2023-03-24T11:57:52.011Z,29.90
2023-03-24T12:00:27.068Z,30.00
2023-03-24T12:03:16.326Z,29.90
2023-03-24T12:05:51.379Z,30.00
2023-03-24T12:08:30.897Z,30.00
2023-03-24T12:11:15.672Z,30.00
2023-03-24T12:13:49.154Z,30.30
2023-03-24T12:16:29.753Z,30.50
2023-03-24T12:19:31.088Z,30.60
2023-03-24T12:22:09.815Z,30.80
2023-03-24T12:24:59.777Z,30.70
2023-03-24T12:27:42.250Z,30.70
2023-03-24T12:30:23.001Z,30.70
2023-03-24T12:33:00.045Z,30.80
2023-03-24T12:35:52.138Z,30.90
2023-03-24T12:38:39.550Z,31.70
2023-03-24T12:41:34.845Z,32.00
2023-03-24T12:44:29.033Z,32.50
2023-03-24T12:47:06.698Z,32.30
2023-03-24T12:49:55.830Z,32.40
2023-03-24T12:52:51.150Z,32.50
2023-03-24T12:55:34.484Z,32.30
2023-03-24T12:58:09.477Z,32.30
2023-03-24T13:00:43.434Z,32.30
2023-03-24T13:03:16.035Z,32.30
2023-03-24T13:05:51.083Z,32.30
2023-03-24T13:08:29.731Z,32.40
2023-03-24T13:11:02.740Z,32.70
2023-03-24T13:13:36.625Z,32.40
2023-03-24T13:16:10.840Z,32.30
2023-03-24T13:18:43.897Z,32.10
2023-03-24T13:21:16.236Z,32.10
2023-03-24T13:23:55.259Z,32.10
2023-03-24T13:26:35.344Z,32.90
2023-03-24T13:29:38.419Z,33.00
2023-03-24T13:32:30.521Z,33.40
2023-03-24T13:35:07.188Z,33.40
2023-03-24T13:37:39.331Z,33.40
2023-03-24T13:40:12.295Z,33.80
2023-03-24T13:42:46.937Z,34.00
2023-03-24T13:45:28.139Z,34.20
2023-03-24T13:48:06.980Z,34.30
2023-03-24T13:50:38.586Z,34.40
2023-03-24T13:53:16.173Z,34.50
2023-03-24T13:55:51.285Z,34.60
2023-03-24T13:58:22.706Z,34.90
2023-03-24T14:01:19.365Z,34.90
2023-03-24T14:04:29.443Z,34.20
2023-03-24T14:06:59.854Z,34.50
2023-03-24T14:09:31.027Z,34.30
2023-03-24T14:12:21.361Z,34.30
2023-03-24T14:15:17.863Z,34.20
2023-03-24T14:17:48.379Z,33.50
2023-03-24T14:20:33.508Z,33.10
2023-03-24T14:23:03.534Z,33.40
2023-03-24T14:25:34.074Z,32.80
2023-03-24T14:28:27.725Z,32.30
2023-03-24T14:31:03.812Z,32.10
2023-03-24T14:33:32.416Z,31.80
2023-03-24T14:36:12.186Z,31.50
2023-03-24T14:38:44.309Z,31.50
2023-03-24T14:41:17.181Z,31.70
2023-03-24T14:43:58.672Z,31.90
2023-03-24T14:46:42.574Z,31.90
2023-03-24T14:49:31.350Z,32.10
2023-03-24T14:52:04.815Z,32.20
2023-03-24T14:54:38.965Z,32.20
2023-03-24T14:57:09.604Z,32.40
2023-03-24T14:59:46.688Z,32.50
2023-03-24T15:02:36.208Z,32.70
2023-03-24T15:05:26.209Z,32.90
2023-03-24T15:08:14.326Z,33.10
2023-03-24T15:10:47.639Z,33.40
2023-03-24T15:13:30.548Z,33.50
2023-03-24T15:15:59.992Z,33.80
2023-03-24T15:18:28.724Z,34.00
2023-03-24T15:20:57.646Z,34.20
2023-03-24T15:23:29.532Z,34.30
2023-03-24T15:25:58.602Z,34.40
2023-03-24T15:28:29.040Z,34.40
2023-03-24T15:30:59.842Z,34.50
2023-03-24T15:33:31.405Z,34.80
2023-03-24T15:36:01.080Z,35.00
2023-03-24T15:38:32.994Z,35.30
2023-03-24T15:41:04.476Z,35.50
2023-03-24T15:43:33.036Z,35.60
2023-03-24T15:46:11.996Z,35.80
2023-03-24T15:48:41.504Z,36.00
2023-03-24T15:51:12.463Z,36.20
2023-03-24T15:53:49.295Z,36.30
2023-03-24T15:56:21.420Z,36.30
2023-03-24T15:58:53.700Z,36.50
2023-03-24T16:01:31.534Z,36.70
2023-03-24T16:04:03.263Z,36.90
2023-03-24T16:06:35.550Z,37.00
2023-03-24T16:09:08.766Z,37.20
2023-03-24T16:11:37.501Z,37.20
2023-03-24T16:14:23.077Z,37.20
2023-03-24T16:16:55.473Z,37.30
2023-03-24T16:19:24.338Z,37.50
2023-03-24T16:21:54.006Z,37.70
2023-03-24T16:24:24.118Z,37.90
2023-03-24T16:26:52.542Z,38.00
2023-03-24T16:29:23.289Z,38.00
2023-03-24T16:31:53.318Z,38.10
2023-03-24T16:34:23.297Z,38.10
2023-03-24T16:36:53.538Z,38.30
2023-03-24T16:39:27.614Z,38.40
2023-03-24T16:41:57.008Z,38.50
2023-03-24T16:44:25.795Z,38.60
2023-03-24T16:46:55.875Z,38.70
2023-03-24T16:49:25.405Z,39.00
2023-03-24T16:51:54.843Z,39.30
2023-03-24T16:54:24.602Z,39.50
2023-03-24T16:56:53.147Z,39.60
2023-03-24T16:59:21.924Z,39.60
2023-03-24T17:01:54.004Z,39.70
2023-03-24T17:04:26.264Z,39.80
2023-03-24T17:06:55.143Z,40.00
2023-03-24T17:09:24.985Z,40.10
2023-03-24T17:11:56.923Z,40.20
2023-03-24T17:14:25.793Z,40.30
2023-03-24T17:16:54.340Z,40.30
2023-03-24T17:19:24.886Z,40.30
2023-03-24T17:21:59.262Z,40.50
2023-03-24T17:24:30.363Z,40.50
2023-03-24T17:26:58.863Z,40.50
2023-03-24T17:29:27.310Z,40.60
2023-03-24T17:31:55.901Z,40.60
2023-03-24T17:34:24.434Z,40.70
2023-03-24T17:36:53.078Z,40.90
2023-03-24T17:39:22.579Z,40.90
2023-03-24T17:41:52.301Z,40.90
2023-03-24T17:44:20.731Z,41.00
2023-03-24T17:46:49.196Z,41.20
2023-03-24T17:49:17.819Z,41.20
2023-03-24T17:51:46.445Z,41.20
2023-03-24T17:54:16.738Z,41.20
2023-03-24T17:56:45.185Z,41.30
2023-03-24T17:59:15.008Z,41.40
2023-03-24T18:01:43.568Z,41.60
2023-03-24T18:04:12.147Z,41.50
2023-03-24T18:06:42.119Z,41.50
2023-03-24T18:09:10.902Z,41.50
2023-03-24T18:11:39.630Z,41.40
2023-03-24T18:14:09.273Z,41.50
2023-03-24T18:16:39.617Z,41.60
2023-03-24T18:19:08.159Z,41.60
2023-03-24T18:21:36.673Z,41.60
2023-03-24T18:24:06.642Z,41.60
2023-03-24T18:26:35.206Z,41.70
2023-03-24T18:29:03.755Z,41.80
2023-03-24T18:31:32.928Z,41.90
2023-03-24T18:34:04.123Z,42.00
2023-03-24T18:36:32.730Z,41.90
2023-03-24T18:39:04.742Z,42.30
2023-03-24T18:41:36.899Z,42.90
2023-03-24T18:44:07.376Z,43.00
2023-03-24T18:46:36.917Z,43.40
2023-03-24T18:49:07.237Z,43.80
2023-03-24T18:51:35.924Z,44.10
2023-03-24T18:54:04.667Z,44.30
2023-03-24T18:56:33.183Z,44.50
2023-03-24T18:59:01.897Z,44.60
2023-03-24T19:01:33.055Z,44.70
2023-03-24T19:04:01.718Z,44.80
2023-03-24T19:06:32.103Z,45.00
2023-03-24T19:09:01.153Z,45.10
2023-03-24T19:11:29.861Z,45.40
2023-03-24T19:13:59.403Z,45.50
2023-03-24T19:16:28.510Z,45.80
2023-03-24T19:18:58.685Z,46.10
2023-03-24T19:21:27.752Z,46.50
2023-03-24T19:23:58.136Z,46.90
2023-03-24T19:26:26.875Z,47.20
2023-03-24T19:28:55.502Z,48.10
2023-03-24T19:31:24.081Z,47.90
2023-03-24T19:33:53.727Z,48.00
2023-03-24T19:36:22.236Z,48.20
2023-03-24T19:38:51.064Z,48.40
2023-03-24T19:41:20.843Z,48.70
2023-03-24T19:43:49.298Z,49.20
2023-03-24T19:46:21.058Z,49.50
2023-03-24T19:48:49.698Z,49.70
2023-03-24T19:51:18.613Z,49.90
2023-03-24T19:53:47.059Z,50.20
2023-03-24T19:56:17.481Z,50.50
2023-03-24T19:58:47.332Z,50.60
2023-03-24T20:01:16.058Z,51.10
2023-03-24T20:03:44.603Z,51.20
2023-03-24T20:06:13.067Z,51.40
2023-03-24T20:08:42.313Z,51.50
2023-03-24T20:11:12.542Z,51.60
2023-03-24T20:13:41.039Z,51.90
2023-03-24T20:16:11.229Z,52.00
2023-03-24T20:18:40.421Z,52.40
2023-03-24T20:21:09.888Z,52.60
2023-03-24T20:23:38.374Z,52.70
2023-03-24T20:26:06.948Z,53.30
2023-03-24T20:28:35.362Z,53.10
2023-03-24T20:31:05.145Z,53.10
2023-03-24T20:33:35.861Z,53.40
2023-03-24T20:36:04.763Z,53.60
2023-03-24T20:38:33.293Z,53.60
2023-03-24T20:41:03.342Z,54.20
2023-03-24T20:43:35.667Z,54.10
2023-03-24T20:46:04.806Z,54.20
2023-03-24T20:48:35.151Z,54.40
2023-03-24T20:51:04.235Z,54.80
2023-03-24T20:53:35.055Z,54.90
2023-03-24T20:56:06.657Z,54.90
2023-03-24T20:58:35.426Z,55.00
2023-03-24T21:01:08.239Z,55.00
2023-03-24T21:03:38.211Z,55.00
2023-03-24T21:06:07.166Z,55.10
2023-03-24T21:08:37.627Z,55.10
2023-03-24T21:11:06.185Z,55.10
2023-03-24T21:13:37.664Z,55.10
2023-03-24T21:16:08.621Z,55.10
2023-03-24T21:18:39.632Z,55.20
2023-03-24T21:21:12.504Z,55.20
2023-03-24T21:23:42.953Z,55.20
2023-03-24T21:26:15.288Z,55.20
2023-03-24T21:28:44.656Z,55.30
2023-03-24T21:31:18.475Z,55.30
2023-03-24T21:33:48.251Z,55.40
2023-03-24T21:36:17.008Z,55.40
2023-03-24T21:38:46.040Z,55.30
2023-03-24T21:41:14.423Z,55.40
2023-03-24T21:43:46.983Z,55.40
2023-03-24T21:46:20.565Z,55.40
2023-03-24T21:48:52.205Z,55.40
2023-03-24T21:51:21.531Z,56.00
2023-03-24T21:53:49.894Z,55.50
2023-03-24T21:56:20.530Z,55.70
2023-03-24T21:58:49.126Z,55.90
2023-03-24T22:01:17.553Z,56.10
2023-03-24T22:03:46.640Z,55.70
2023-03-24T22:06:17.385Z,55.90
2023-03-24T22:08:48.871Z,55.90
2023-03-24T22:11:19.294Z,56.10
2023-03-24T22:13:47.770Z,56.20
2023-03-24T22:16:16.278Z,56.00
2023-03-24T22:18:44.626Z,56.00
2023-03-24T22:21:13.412Z,56.00
2023-03-24T22:23:43.667Z,56.50
2023-03-24T22:26:13.870Z,56.40
2023-03-24T22:28:43.416Z,56.40
2023-03-24T22:31:13.785Z,56.30
2023-03-24T22:33:42.709Z,56.20
2023-03-24T22:36:12.100Z,56.40
2023-03-24T22:38:40.642Z,56.60
2023-03-24T22:41:13.310Z,56.70
2023-03-24T22:43:43.088Z,57.20
2023-03-24T22:46:12.065Z,57.10
2023-03-24T22:48:40.905Z,57.10
2023-03-24T22:51:09.914Z,57.10
2023-03-24T22:53:38.349Z,57.50
2023-03-24T22:56:09.239Z,59.00
2023-03-24T22:58:40.167Z,59.10
2023-03-24T23:01:09.793Z,58.90
2023-03-24T23:03:38.301Z,58.90
2023-03-24T23:06:07.568Z,58.80
2023-03-24T23:08:37.557Z,58.80
2023-03-24T23:11:07.724Z,58.80
2023-03-24T23:13:36.590Z,58.70
2023-03-24T23:16:07.128Z,58.70
2023-03-24T23:18:36.109Z,58.90
2023-03-24T23:21:08.139Z,58.90
2023-03-24T23:23:37.597Z,58.90
2023-03-24T23:26:07.278Z,58.90
2023-03-24T23:28:36.458Z,59.30
2023-03-24T23:31:13.511Z,59.50
2023-03-24T23:33:42.489Z,59.50
2023-03-24T23:36:17.143Z,59.50
2023-03-24T23:38:50.645Z,59.50
2023-03-24T23:41:19.921Z,59.50
2023-03-24T23:43:50.230Z,59.60
2023-03-24T23:46:20.969Z,59.60
2023-03-24T23:48:49.601Z,59.80
2023-03-24T23:51:18.041Z,59.80
2023-03-24T23:53:46.495Z,59.90
2023-03-24T23:56:15.062Z,60.20
2023-03-24T23:58:44.039Z,60.50
